Terminal Aerodrome Forecast
Issued by NWS

Home | Current Version | Previous Version | Text Only | Print | Product List | Glossary On
Versions: 1 2 3 4 5 6 7 8 9 10 11 12 13
000
FTUS45 KRIW 271100
TAFCOD
TAF
KCOD 271124Z 2712/2812 19006KT P6SM BKN070
     FM271700 03008KT P6SM VCSH SCT050 BKN080
     FM272100 VRB12G18KT P6SM VCTS SCT040 BKN070CB
     FM280300 VRB06KT P6SM VCSH SCT050 OVC080
      AMD LTD TO CLD VIS AND WIND=

USA.gov is the U.S. government's official web portal to all federal, state and local government web resources and services.